CheckWX is a tool to help pilots better visualize weather data.  It is not intended as a substitute for an official pre-flight weather briefing.

14:50:30 UTC

CYQU TAF
Grande Prairie Airport
Grande Prairie, Canada
TAF CYQU 231238Z 2313/2401 VRB03KT P6SM BKN240 BECMG 2319/2321 04012KT RMK NXT FCST BY 231900Z

Mar-23@
13:00 UTC

Mar-23 @ 13:00 UTC

Mar-23@
19:00 UTC

Mar-23 @ 19:00 UTC

TAF CYQU 231238Z 2313/2401 VRB03KT P6SM BKN240
Wind
  • Variable at 3 KTS
Cloud Levels
  • Broken at 24,000' AGL

Mar-23@
19:00 UTC

Mar-23 @ 19:00 UTC

Mar-24@
01:00 UTC

Mar-24 @ 01:00 UTC

BECMG 2319/2321 04012KT RMK NXT FCST BY 231900Z

Becoming

Becoming Conditions expected by Sat, Mar 23, 2019 @ 21:00 UTC

Wind
  • 040° at 12 KTS
Cloud Levels
  • Broken at 24,000' AGL